Time;durP1;ratioP1;P1;durP2;ratioP2;P2;SDS_P1;SDS_P2;PMS_P1;PMS_P2;Temp;Humidity;BMP_temperature;BMP_pressure;BME280_temperature;BME280_humidity;BME280_pressure;Samples;Min_cycle;Max_cycle;Signal;HPM_P1;HPM_P2
2021/03/16 00:02:22;;;;;;;12.37;3.60;;;;;;;;;;5006372;28;20338;-52
2021/03/16 00:04:48;;;;;;;10.60;3.60;;;;;;;;;;5003712;28;20251;-52
2021/03/16 00:07:14;;;;;;;17.57;3.93;;;;;;;;;;4990811;28;20194;-49
2021/03/16 00:09:39;;;;;;;14.90;3.33;;;;;;;;;;5006374;28;20184;-48
2021/03/16 00:12:05;;;;;;;18.90;4.03;;;;;;;;;;5006638;28;20203;-49
2021/03/16 00:14:30;;;;;;;21.23;4.20;;;;;;;;;;5004019;28;20215;-50
2021/03/16 00:16:56;;;;;;;15.20;4.10;;;;;;;;;;5008640;28;20274;-50
2021/03/16 00:19:21;;;;;;;13.07;4.17;;;;;;;;;;5009758;28;20215;-48
2021/03/16 00:21:47;;;;;;;14.93;3.87;;;;;;;;;;5008111;28;20558;-50
2021/03/16 00:24:12;;;;;;;13.87;3.67;;;;;;;;;;5006640;28;20204;-47
2021/03/16 00:26:38;;;;;;;12.97;3.67;;;;;;;;;;5008487;28;20271;-50
2021/03/16 00:29:03;;;;;;;10.70;3.63;;;;;;;;;;4992962;28;20206;-48
2021/03/16 00:31:29;;;;;;;11.77;3.50;;;;;;;;;;5003763;28;20195;-51
2021/03/16 00:33:54;;;;;;;12.10;3.43;;;;;;;;;;5006009;28;20211;-47
2021/03/16 00:36:19;;;;;;;10.93;3.30;;;;;;;;;;5003556;28;20219;-52
2021/03/16 00:38:45;;;;;;;11.37;3.93;;;;;;;;;;5008985;28;20695;-51
2021/03/16 00:41:10;;;;;;;15.63;3.67;;;;;;;;;;5007266;28;20206;-48
2021/03/16 00:43:35;;;;;;;15.77;4.47;;;;;;;;;;5007323;28;20191;-51
2021/03/16 00:46:01;;;;;;;14.83;4.00;;;;;;;;;;5008792;28;20265;-48
2021/03/16 00:48:26;;;;;;;19.33;3.93;;;;;;;;;;5009063;28;20199;-49
2021/03/16 00:50:52;;;;;;;10.70;3.40;;;;;;;;;;5002851;28;20196;-51
2021/03/16 00:53:17;;;;;;;15.93;4.00;;;;;;;;;;4990560;28;20683;-48
2021/03/16 00:55:42;;;;;;;12.93;4.27;;;;;;;;;;5006304;28;20246;-51
2021/03/16 00:58:07;;;;;;;11.37;3.83;;;;;;;;;;4999731;28;20528;-49
2021/03/16 01:00:33;;;;;;;17.87;3.93;;;;;;;;;;5007148;28;20633;-50
2021/03/16 01:02:58;;;;;;;18.03;4.87;;;;;;;;;;5006645;28;20218;-48
2021/03/16 01:05:26;;;;;;;15.50;4.17;;;;;;;;;;4990534;28;20258;-52
2021/03/16 01:07:53;;;;;;;13.80;4.23;;;;;;;;;;4992380;28;20176;-48
2021/03/16 01:10:20;;;;;;;11.20;3.90;;;;;;;;;;5006141;28;20667;-48
2021/03/16 01:12:45;;;;;;;15.00;4.07;;;;;;;;;;5003052;28;20212;-47
2021/03/16 01:15:12;;;;;;;14.67;3.87;;;;;;;;;;4999167;28;20291;-49
2021/03/16 01:17:38;;;;;;;12.83;3.90;;;;;;;;;;5006081;28;20230;-49
2021/03/16 01:20:10;;;;;;;12.17;3.60;;;;;;;;;;4990930;28;20681;-51
2021/03/16 01:22:36;;;;;;;12.17;4.47;;;;;;;;;;5005658;28;20219;-50
2021/03/16 01:25:01;;;;;;;12.53;3.70;;;;;;;;;;4990249;28;20246;-51
2021/03/16 01:27:26;;;;;;;16.23;3.93;;;;;;;;;;5010542;28;20762;-52
2021/03/16 01:29:52;;;;;;;16.43;4.03;;;;;;;;;;5005317;28;20179;-49
2021/03/16 01:32:17;;;;;;;10.70;3.63;;;;;;;;;;5005694;28;20191;-48
2021/03/16 01:34:42;;;;;;;20.00;3.60;;;;;;;;;;4984124;28;20686;-50
2021/03/16 01:37:07;;;;;;;16.10;4.10;;;;;;;;;;5013662;28;20218;-50
2021/03/16 01:39:33;;;;;;;15.23;3.70;;;;;;;;;;5008751;28;20265;-52
2021/03/16 01:41:58;;;;;;;13.67;4.00;;;;;;;;;;4988755;28;20202;-48
2021/03/16 01:44:23;;;;;;;14.23;3.80;;;;;;;;;;5007622;28;20215;-49
2021/03/16 01:46:49;;;;;;;15.80;4.07;;;;;;;;;;5007779;28;20191;-47
2021/03/16 01:49:14;;;;;;;14.70;3.53;;;;;;;;;;5006291;28;20606;-51
2021/03/16 01:51:40;;;;;;;12.10;4.20;;;;;;;;;;5004354;28;20572;-49
2021/03/16 01:54:07;;;;;;;16.93;4.33;;;;;;;;;;5006992;28;20744;-49
2021/03/16 01:56:36;;;;;;;13.40;4.70;;;;;;;;;;5013378;28;20182;-50
2021/03/16 01:59:02;;;;;;;15.63;3.93;;;;;;;;;;4999952;28;20211;-50
2021/03/16 02:01:27;;;;;;;15.13;3.93;;;;;;;;;;4988873;28;20249;-50
2021/03/16 02:03:53;;;;;;;16.07;3.90;;;;;;;;;;5012361;28;20227;-52
2021/03/16 02:06:29;;;;;;;19.53;4.67;;;;;;;;;;5002184;28;20214;-50
2021/03/16 02:09:09;;;;;;;8.37;3.07;;;;;;;;;;5005985;28;20274;-50
2021/03/16 02:11:56;;;;;;;7.13;3.13;;;;;;;;;;4999901;28;20257;-50
2021/03/16 02:14:35;;;;;;;14.43;3.40;;;;;;;;;;5000964;28;20188;-52
2021/03/16 02:17:00;;;;;;;11.47;3.00;;;;;;;;;;4989676;28;20234;-50
2021/03/16 02:19:53;;;;;;;12.17;3.77;;;;;;;;;;5007165;28;20242;-51
2021/03/16 02:22:23;;;;;;;8.23;3.00;;;;;;;;;;5001337;28;20262;-49
2021/03/16 02:25:10;;;;;;;8.57;3.40;;;;;;;;;;5002724;28;20226;-52
2021/03/16 02:27:57;;;;;;;8.57;3.00;;;;;;;;;;5003345;28;20253;-49
2021/03/16 02:30:23;;;;;;;15.03;3.50;;;;;;;;;;4995855;28;20190;-52
2021/03/16 02:32:50;;;;;;;7.43;3.40;;;;;;;;;;4984714;28;20565;-49
2021/03/16 02:35:18;;;;;;;12.47;3.40;;;;;;;;;;5004966;28;20659;-50
2021/03/16 02:37:45;;;;;;;11.93;3.77;;;;;;;;;;5002733;28;20191;-48
2021/03/16 02:40:11;;;;;;;11.73;3.70;;;;;;;;;;5004136;28;20215;-51
2021/03/16 02:42:38;;;;;;;13.53;4.03;;;;;;;;;;4985614;28;20207;-53
2021/03/16 02:45:07;;;;;;;10.77;4.10;;;;;;;;;;5001170;28;20215;-58
2021/03/16 02:47:34;;;;;;;13.20;3.37;;;;;;;;;;4984314;28;20225;-53
2021/03/16 02:50:01;;;;;;;9.60;3.77;;;;;;;;;;5002239;28;20289;-58
2021/03/16 02:52:26;;;;;;;8.50;3.27;;;;;;;;;;5002127;28;20562;-47
2021/03/16 02:54:52;;;;;;;6.57;3.30;;;;;;;;;;4989275;28;20199;-51
2021/03/16 02:57:19;;;;;;;9.57;3.53;;;;;;;;;;4989169;28;20258;-48
2021/03/16 02:59:47;;;;;;;12.10;3.50;;;;;;;;;;4983972;28;20215;-51
2021/03/16 03:02:13;;;;;;;6.40;3.00;;;;;;;;;;4994985;28;20211;-49
2021/03/16 03:04:41;;;;;;;12.53;3.20;;;;;;;;;;5001781;28;20208;-51
2021/03/16 03:07:09;;;;;;;10.63;3.57;;;;;;;;;;5004005;28;20202;-50
2021/03/16 03:09:35;;;;;;;10.83;3.30;;;;;;;;;;4984802;28;20187;-49
2021/03/16 03:12:08;;;;;;;11.07;3.40;;;;;;;;;;4987549;28;20717;-50
2021/03/16 03:14:34;;;;;;;9.87;3.23;;;;;;;;;;4981881;28;20314;-49
2021/03/16 03:17:01;;;;;;;14.87;3.73;;;;;;;;;;5004241;28;20217;-50
2021/03/16 03:19:27;;;;;;;8.87;3.33;;;;;;;;;;5003251;28;20219;-47
2021/03/16 03:22:18;;;;;;;11.83;3.13;;;;;;;;;;5003437;28;20203;-50
2021/03/16 03:24:51;;;;;;;13.40;3.93;;;;;;;;;;4996594;28;20247;-48
2021/03/16 03:27:24;;;;;;;8.80;3.37;;;;;;;;;;5006034;28;20233;-56
2021/03/16 03:29:50;;;;;;;11.77;3.53;;;;;;;;;;5001383;28;20233;-48
2021/03/16 03:32:19;;;;;;;10.77;3.63;;;;;;;;;;4999050;28;20187;-49
2021/03/16 03:34:47;;;;;;;11.50;3.03;;;;;;;;;;4999671;28;20315;-50
2021/03/16 03:37:13;;;;;;;10.30;3.33;;;;;;;;;;5001504;28;20183;-49
2021/03/16 03:39:39;;;;;;;12.70;3.47;;;;;;;;;;5001896;28;20690;-50
2021/03/16 03:42:06;;;;;;;10.93;3.10;;;;;;;;;;5003657;28;20180;-48
2021/03/16 03:44:33;;;;;;;17.10;3.10;;;;;;;;;;5005291;28;20208;-50
2021/03/16 03:47:00;;;;;;;12.30;3.70;;;;;;;;;;5010132;28;20902;-49
2021/03/16 03:49:25;;;;;;;9.40;2.93;;;;;;;;;;5008685;28;20191;-50
2021/03/16 03:51:53;;;;;;;14.30;3.63;;;;;;;;;;5001710;28;20589;-50
2021/03/16 03:54:19;;;;;;;14.60;3.53;;;;;;;;;;5004751;28;20258;-52
2021/03/16 03:56:45;;;;;;;11.87;2.90;;;;;;;;;;5007504;28;20862;-47
2021/03/16 03:59:12;;;;;;;13.53;3.07;;;;;;;;;;4991578;28;20211;-49
2021/03/16 04:01:37;;;;;;;9.53;2.70;;;;;;;;;;5004549;28;20498;-50
2021/03/16 04:04:03;;;;;;;8.13;2.80;;;;;;;;;;5006086;28;20278;-50
2021/03/16 04:06:29;;;;;;;16.93;3.30;;;;;;;;;;5011350;28;20188;-47
2021/03/16 04:08:56;;;;;;;13.93;3.93;;;;;;;;;;4991222;28;20706;-48
2021/03/16 04:11:23;;;;;;;15.53;3.87;;;;;;;;;;4996460;28;20755;-53
2021/03/16 04:13:49;;;;;;;12.47;3.13;;;;;;;;;;5005441;28;20200;-50
2021/03/16 04:16:17;;;;;;;15.53;3.37;;;;;;;;;;5013973;28;20207;-48
2021/03/16 04:18:43;;;;;;;12.20;3.43;;;;;;;;;;5010228;28;20219;-51
2021/03/16 04:21:09;;;;;;;20.40;3.60;;;;;;;;;;5004547;28;20267;-49
2021/03/16 04:23:35;;;;;;;12.53;3.73;;;;;;;;;;5005804;28;20187;-50
2021/03/16 04:26:01;;;;;;;15.73;4.20;;;;;;;;;;5012813;28;20616;-49
2021/03/16 04:28:26;;;;;;;18.00;4.43;;;;;;;;;;5009681;28;20278;-51
2021/03/16 04:30:52;;;;;;;14.07;4.27;;;;;;;;;;5006756;28;20192;-48
2021/03/16 04:33:18;;;;;;;19.03;5.70;;;;;;;;;;5014251;28;20556;-49
2021/03/16 04:35:43;;;;;;;11.17;4.37;;;;;;;;;;5006456;28;20211;-49
2021/03/16 04:38:08;;;;;;;18.57;5.77;;;;;;;;;;4992190;28;20194;-51
2021/03/16 04:40:34;;;;;;;16.03;5.33;;;;;;;;;;4990735;28;20223;-48
2021/03/16 04:42:59;;;;;;;18.23;4.97;;;;;;;;;;5003993;28;20250;-50
2021/03/16 04:45:24;;;;;;;15.77;5.60;;;;;;;;;;5015373;28;20207;-50
2021/03/16 04:47:50;;;;;;;18.77;5.97;;;;;;;;;;5009199;28;20195;-49
2021/03/16 04:50:15;;;;;;;19.57;6.83;;;;;;;;;;4998752;28;20195;-51
2021/03/16 04:52:40;;;;;;;22.33;6.30;;;;;;;;;;5010654;28;20196;-49
2021/03/16 04:55:06;;;;;;;17.57;5.13;;;;;;;;;;5003282;28;20238;-49
2021/03/16 04:57:31;;;;;;;20.00;6.77;;;;;;;;;;5007632;28;20199;-51
2021/03/16 04:59:56;;;;;;;15.00;6.00;;;;;;;;;;5004161;28;20212;-49
2021/03/16 05:02:22;;;;;;;18.10;6.30;;;;;;;;;;4988706;28;20250;-52
2021/03/16 05:04:47;;;;;;;15.57;5.67;;;;;;;;;;5009812;28;20223;-52
2021/03/16 05:07:12;;;;;;;14.33;5.80;;;;;;;;;;5008109;28;20190;-47
2021/03/16 05:09:38;;;;;;;18.20;6.20;;;;;;;;;;5001558;28;20647;-50
2021/03/16 05:12:03;;;;;;;15.77;6.10;;;;;;;;;;5011863;28;20279;-48
2021/03/16 05:14:29;;;;;;;17.23;5.60;;;;;;;;;;4989157;28;20219;-50
2021/03/16 05:16:54;;;;;;;20.13;5.97;;;;;;;;;;4988651;28;20219;-50
2021/03/16 05:19:19;;;;;;;14.20;6.37;;;;;;;;;;5002930;28;20269;-50
2021/03/16 05:21:44;;;;;;;13.70;5.87;;;;;;;;;;5003680;28;20281;-49
2021/03/16 05:24:10;;;;;;;16.80;7.00;;;;;;;;;;5013645;28;20249;-51
2021/03/16 05:26:35;;;;;;;13.20;5.77;;;;;;;;;;5014469;28;20702;-49
2021/03/16 05:29:01;;;;;;;20.37;5.90;;;;;;;;;;5005276;28;20254;-48
2021/03/16 05:31:28;;;;;;;14.27;5.77;;;;;;;;;;5004933;28;20195;-50
2021/03/16 05:33:54;;;;;;;16.20;6.43;;;;;;;;;;5011362;28;20624;-52
2021/03/16 05:36:19;;;;;;;17.23;5.90;;;;;;;;;;5014567;28;20313;-50
2021/03/16 05:38:44;;;;;;;14.80;6.90;;;;;;;;;;5003570;28;20194;-51
2021/03/16 05:41:10;;;;;;;16.60;5.73;;;;;;;;;;5003879;28;20564;-57
2021/03/16 05:43:36;;;;;;;16.03;6.93;;;;;;;;;;5000645;28;20192;-49
2021/03/16 05:46:01;;;;;;;16.67;6.43;;;;;;;;;;5006742;28;20240;-50
2021/03/16 05:48:29;;;;;;;16.40;7.13;;;;;;;;;;5004187;28;20660;-51
2021/03/16 05:50:54;;;;;;;13.37;6.60;;;;;;;;;;5005702;28;20845;-49
2021/03/16 05:53:21;;;;;;;24.57;7.30;;;;;;;;;;5003678;28;20198;-52
2021/03/16 05:55:47;;;;;;;20.90;7.37;;;;;;;;;;5001628;28;20207;-49
2021/03/16 05:58:12;;;;;;;18.90;7.00;;;;;;;;;;5005347;28;20616;-51
2021/03/16 06:00:37;;;;;;;19.63;7.40;;;;;;;;;;5011087;28;20238;-48
2021/03/16 06:03:06;;;;;;;16.67;7.50;;;;;;;;;;5006062;28;20540;-53
2021/03/16 06:05:32;;;;;;;18.47;8.33;;;;;;;;;;5004371;28;20242;-52
2021/03/16 06:07:57;;;;;;;16.30;7.57;;;;;;;;;;5000410;28;20207;-49
2021/03/16 06:10:23;;;;;;;17.60;6.83;;;;;;;;;;5007166;28;20191;-51
2021/03/16 06:12:49;;;;;;;14.77;6.13;;;;;;;;;;4997279;28;20194;-49
2021/03/16 06:15:16;;;;;;;11.30;6.53;;;;;;;;;;5000642;28;20214;-48
2021/03/16 06:17:43;;;;;;;20.20;7.30;;;;;;;;;;5001149;28;20217;-51
2021/03/16 06:20:11;;;;;;;23.17;7.30;;;;;;;;;;5010229;28;20314;-50
2021/03/16 06:22:37;;;;;;;14.17;7.47;;;;;;;;;;5012384;28;20188;-48
2021/03/16 06:25:02;;;;;;;17.20;7.43;;;;;;;;;;5006405;28;20215;-49
2021/03/16 06:27:28;;;;;;;15.73;8.00;;;;;;;;;;5003821;28;20195;-51
2021/03/16 06:29:53;;;;;;;22.63;8.63;;;;;;;;;;5010189;28;20245;-51
2021/03/16 06:32:19;;;;;;;18.57;9.03;;;;;;;;;;5010652;28;20222;-49
2021/03/16 06:34:45;;;;;;;21.57;9.23;;;;;;;;;;5004834;28;20634;-51
2021/03/16 06:37:11;;;;;;;15.80;9.10;;;;;;;;;;5011489;28;20191;-51
2021/03/16 06:39:45;;;;;;;21.73;9.63;;;;;;;;;;4989141;28;20616;-51
2021/03/16 06:42:26;;;;;;;19.57;9.20;;;;;;;;;;4988545;28;20201;-50
2021/03/16 06:45:18;;;;;;;19.97;9.23;;;;;;;;;;5007378;28;20214;-53
2021/03/16 06:47:43;;;;;;;16.90;9.40;;;;;;;;;;4980637;28;20564;-47
2021/03/16 06:50:09;;;;;;;19.27;10.10;;;;;;;;;;5002186;28;20202;-51
2021/03/16 06:52:35;;;;;;;21.33;11.03;;;;;;;;;;5006350;28;20184;-52
2021/03/16 06:55:13;;;;;;;17.67;9.30;;;;;;;;;;4999300;28;20282;-48
2021/03/16 06:57:39;;;;;;;18.40;8.57;;;;;;;;;;5005418;28;20217;-49
2021/03/16 07:00:06;;;;;;;19.30;9.10;;;;;;;;;;4989265;28;20691;-50
2021/03/16 07:02:32;;;;;;;24.17;10.00;;;;;;;;;;4987384;28;20562;-48
2021/03/16 07:04:57;;;;;;;15.77;8.97;;;;;;;;;;5009755;28;20203;-50
2021/03/16 07:07:22;;;;;;;18.87;8.73;;;;;;;;;;4993950;28;20199;-49
2021/03/16 07:09:48;;;;;;;18.03;7.43;;;;;;;;;;5004630;28;20187;-50
2021/03/16 07:12:15;;;;;;;20.23;8.57;;;;;;;;;;4987749;28;20183;-51
2021/03/16 07:14:42;;;;;;;17.73;7.00;;;;;;;;;;5003538;28;20301;-51
2021/03/16 07:17:08;;;;;;;13.87;6.13;;;;;;;;;;5011071;28;20202;-49
2021/03/16 07:19:34;;;;;;;16.40;6.30;;;;;;;;;;5011843;28;20216;-49
2021/03/16 07:22:01;;;;;;;14.83;6.10;;;;;;;;;;5011625;28;20202;-49
2021/03/16 07:24:32;;;;;;;19.53;6.83;;;;;;;;;;4995105;28;20618;-49
2021/03/16 07:26:58;;;;;;;20.63;7.07;;;;;;;;;;4994001;28;20199;-48
2021/03/16 07:29:24;;;;;;;18.20;6.57;;;;;;;;;;5011199;28;20191;-57
2021/03/16 07:31:50;;;;;;;18.27;6.20;;;;;;;;;;5000651;28;20189;-52
2021/03/16 07:34:19;;;;;;;11.97;6.23;;;;;;;;;;5009255;28;20195;-49
2021/03/16 07:36:50;;;;;;;14.63;5.47;;;;;;;;;;5008832;28;20218;-48
2021/03/16 07:39:25;;;;;;;16.23;5.47;;;;;;;;;;5007050;28;20576;-48
2021/03/16 07:41:51;;;;;;;14.43;5.80;;;;;;;;;;4992110;28;20229;-52
2021/03/16 07:44:19;;;;;;;21.33;5.87;;;;;;;;;;5008407;28;20187;-49
2021/03/16 07:46:53;;;;;;;17.43;6.30;;;;;;;;;;5006835;28;20191;-56
2021/03/16 07:49:35;;;;;;;16.13;6.10;;;;;;;;;;4997515;28;20232;-49
2021/03/16 07:52:01;;;;;;;20.90;5.70;;;;;;;;;;4987838;28;20214;-48
2021/03/16 07:54:36;;;;;;;15.77;5.67;;;;;;;;;;5000099;28;20692;-50
2021/03/16 07:57:02;;;;;;;12.87;5.47;;;;;;;;;;5007449;28;20711;-49
2021/03/16 07:59:32;;;;;;;18.40;6.13;;;;;;;;;;5007031;28;20215;-47
2021/03/16 08:01:57;;;;;;;12.33;4.80;;;;;;;;;;4991527;28;20196;-47
2021/03/16 08:04:33;;;;;;;20.77;6.00;;;;;;;;;;5003983;28;20191;-48
2021/03/16 08:07:03;;;;;;;12.63;6.63;;;;;;;;;;5004959;28;20666;-45
2021/03/16 08:09:28;;;;;;;12.60;6.10;;;;;;;;;;5008283;28;20199;-47
2021/03/16 08:11:54;;;;;;;13.97;6.27;;;;;;;;;;5008245;28;20194;-48
2021/03/16 08:14:30;;;;;;;20.13;7.10;;;;;;;;;;5006674;28;20613;-50
2021/03/16 08:16:55;;;;;;;15.27;6.07;;;;;;;;;;5004482;28;20198;-48
2021/03/16 08:19:36;;;;;;;16.43;6.50;;;;;;;;;;5003186;28;20291;-48
2021/03/16 08:22:01;;;;;;;14.17;5.90;;;;;;;;;;5008778;28;20601;-49
2021/03/16 08:24:41;;;;;;;15.20;5.47;;;;;;;;;;4986368;28;20223;-48
2021/03/16 08:27:08;;;;;;;18.03;4.73;;;;;;;;;;5006827;28;20207;-47
2021/03/16 08:29:34;;;;;;;15.27;5.17;;;;;;;;;;5003587;28;20706;-50
2021/03/16 08:32:00;;;;;;;13.77;4.67;;;;;;;;;;5008494;28;20199;-47
2021/03/16 08:34:27;;;;;;;19.77;5.10;;;;;;;;;;5004470;28;20211;-47
2021/03/16 08:36:52;;;;;;;12.83;5.30;;;;;;;;;;4995857;28;20222;-48
2021/03/16 08:39:20;;;;;;;16.37;4.93;;;;;;;;;;4993614;28;20211;-47
2021/03/16 08:41:58;;;;;;;18.20;6.10;;;;;;;;;;5001034;28;20195;-48
2021/03/16 08:44:28;;;;;;;17.87;5.67;;;;;;;;;;5002680;28;20848;-49
2021/03/16 08:46:56;;;;;;;16.57;5.87;;;;;;;;;;5003398;28;20281;-46
2021/03/16 08:49:24;;;;;;;15.73;5.27;;;;;;;;;;5002827;28;20337;-46
2021/03/16 08:51:49;;;;;;;15.20;4.53;;;;;;;;;;5008031;28;20226;-47
2021/03/16 08:54:28;;;;;;;16.37;5.03;;;;;;;;;;4996693;28;20619;-47
2021/03/16 08:56:53;;;;;;;14.73;4.90;;;;;;;;;;5000909;28;20637;-48
2021/03/16 08:59:20;;;;;;;13.23;4.07;;;;;;;;;;4996986;28;20243;-48
2021/03/16 09:01:48;;;;;;;15.90;5.33;;;;;;;;;;5002806;28;20206;-49
2021/03/16 09:04:13;;;;;;;8.90;4.23;;;;;;;;;;4998616;28;20195;-47
2021/03/16 09:06:39;;;;;;;13.90;4.60;;;;;;;;;;5000999;28;20841;-48
2021/03/16 09:09:05;;;;;;;12.90;4.40;;;;;;;;;;4989028;28;20198;-48
2021/03/16 09:11:32;;;;;;;14.70;4.33;;;;;;;;;;5002769;28;20199;-47
2021/03/16 09:14:06;;;;;;;10.37;3.50;;;;;;;;;;5000088;28;20231;-49
2021/03/16 09:16:32;;;;;;;16.90;3.63;;;;;;;;;;5004961;28;20195;-46
2021/03/16 09:18:58;;;;;;;13.17;3.50;;;;;;;;;;4999608;28;20609;-49
2021/03/16 09:21:23;;;;;;;12.07;3.70;;;;;;;;;;5003737;28;20496;-48
2021/03/16 09:23:50;;;;;;;14.50;3.90;;;;;;;;;;5001760;28;20232;-48
2021/03/16 09:26:24;;;;;;;12.33;4.20;;;;;;;;;;4995168;28;20211;-51
2021/03/16 09:28:50;;;;;;;10.40;4.20;;;;;;;;;;5008475;28;20195;-51
2021/03/16 09:31:15;;;;;;;11.57;3.77;;;;;;;;;;4997719;28;20206;-50
2021/03/16 09:33:41;;;;;;;13.90;4.03;;;;;;;;;;4979524;28;20219;-49
2021/03/16 09:36:07;;;;;;;11.73;3.70;;;;;;;;;;5002727;28;20511;-47
2021/03/16 09:38:32;;;;;;;17.60;3.53;;;;;;;;;;5003045;28;20195;-48
2021/03/16 09:40:57;;;;;;;10.90;3.80;;;;;;;;;;4982394;28;20222;-50
2021/03/16 09:43:29;;;;;;;11.33;3.50;;;;;;;;;;5003981;28;20479;-50
2021/03/16 09:46:00;;;;;;;12.23;3.53;;;;;;;;;;5002647;28;20290;-51
2021/03/16 09:48:27;;;;;;;7.83;3.23;;;;;;;;;;4968080;28;20201;-48
2021/03/16 09:50:53;;;;;;;8.60;2.93;;;;;;;;;;5000861;28;20199;-48
2021/03/16 09:53:19;;;;;;;9.40;2.43;;;;;;;;;;5003858;28;20253;-49
2021/03/16 09:55:54;;;;;;;9.43;2.60;;;;;;;;;;5005763;28;20215;-49
2021/03/16 09:58:21;;;;;;;12.17;3.20;;;;;;;;;;4984203;28;20606;-48
2021/03/16 10:00:48;;;;;;;9.70;3.33;;;;;;;;;;4999743;28;20232;-49
2021/03/16 10:03:15;;;;;;;9.93;3.17;;;;;;;;;;5001782;28;20180;-51
2021/03/16 10:05:41;;;;;;;8.20;2.83;;;;;;;;;;5003547;28;20218;-50
2021/03/16 10:08:06;;;;;;;7.23;2.70;;;;;;;;;;5001901;28;20735;-50
2021/03/16 10:10:37;;;;;;;8.97;2.90;;;;;;;;;;5000866;28;20289;-51
2021/03/16 10:13:06;;;;;;;8.93;2.60;;;;;;;;;;5004101;28;20685;-52
2021/03/16 10:15:38;;;;;;;9.40;2.27;;;;;;;;;;4982377;28;20211;-49
2021/03/16 10:18:08;;;;;;;6.30;1.90;;;;;;;;;;4981268;28;20195;-51
2021/03/16 10:20:39;;;;;;;7.33;1.60;;;;;;;;;;4983715;28;20699;-49
2021/03/16 10:23:06;;;;;;;6.60;1.70;;;;;;;;;;5002690;28;20203;-51
2021/03/16 10:25:34;;;;;;;6.17;1.87;;;;;;;;;;4986374;28;20563;-48
2021/03/16 10:28:02;;;;;;;5.13;1.77;;;;;;;;;;4982819;28;20556;-50
2021/03/16 10:30:31;;;;;;;6.80;2.00;;;;;;;;;;4985583;28;20207;-57
2021/03/16 10:32:56;;;;;;;6.53;1.87;;;;;;;;;;5002987;28;20273;-48
2021/03/16 10:35:22;;;;;;;6.83;1.93;;;;;;;;;;4998315;28;20250;-49
2021/03/16 10:37:47;;;;;;;6.90;1.90;;;;;;;;;;5002730;28;20273;-53
2021/03/16 10:40:13;;;;;;;6.37;2.20;;;;;;;;;;4998243;28;20215;-49
2021/03/16 10:42:38;;;;;;;6.97;2.60;;;;;;;;;;4999676;28;20195;-49
2021/03/16 10:45:04;;;;;;;5.40;2.23;;;;;;;;;;4980669;28;20211;-52
2021/03/16 10:47:29;;;;;;;5.47;2.30;;;;;;;;;;4999031;28;20199;-51
2021/03/16 10:49:55;;;;;;;6.17;2.20;;;;;;;;;;5002431;28;20278;-51
2021/03/16 10:52:20;;;;;;;3.87;1.67;;;;;;;;;;5002427;28;20194;-49
2021/03/16 10:54:47;;;;;;;6.40;1.93;;;;;;;;;;5000285;28;20211;-50
2021/03/16 10:57:12;;;;;;;7.50;2.20;;;;;;;;;;5005918;28;20203;-54
2021/03/16 10:59:39;;;;;;;8.33;2.60;;;;;;;;;;4988594;28;20219;-50
2021/03/16 11:02:06;;;;;;;7.07;2.37;;;;;;;;;;5004994;28;20191;-51
2021/03/16 11:04:33;;;;;;;4.87;2.03;;;;;;;;;;5002011;28;20212;-52
2021/03/16 11:06:58;;;;;;;6.43;2.43;;;;;;;;;;5006000;28;20310;-53
2021/03/16 11:09:23;;;;;;;6.27;2.30;;;;;;;;;;5002923;28;20237;-54
2021/03/16 11:11:49;;;;;;;4.55;2.03;;;;;;;;;;5004404;28;20208;-50
2021/03/16 11:14:14;;;;;;;5.25;2.40;;;;;;;;;;4984792;28;20215;-50
2021/03/16 11:16:40;;;;;;;7.97;2.83;;;;;;;;;;4983603;28;20696;-51
2021/03/16 11:19:05;;;;;;;4.60;2.20;;;;;;;;;;5003427;28;20667;-51
2021/03/16 11:21:31;;;;;;;4.75;1.83;;;;;;;;;;4988917;28;20191;-54
2021/03/16 11:23:56;;;;;;;3.88;1.83;;;;;;;;;;4999683;28;20618;-51
2021/03/16 11:26:21;;;;;;;4.38;2.15;;;;;;;;;;5005569;28;20554;-50
2021/03/16 11:28:47;;;;;;;3.55;1.77;;;;;;;;;;5002199;28;20198;-50
2021/03/16 11:31:12;;;;;;;4.85;1.85;;;;;;;;;;4999763;28;20198;-52
2021/03/16 11:33:38;;;;;;;5.28;2.03;;;;;;;;;;5004764;28;20184;-50
2021/03/16 11:36:04;;;;;;;4.07;1.63;;;;;;;;;;5004091;28;20211;-50
2021/03/16 11:38:29;;;;;;;6.03;2.13;;;;;;;;;;5005568;28;20210;-52
2021/03/16 11:40:55;;;;;;;3.80;2.08;;;;;;;;;;5010047;28;20219;-50
2021/03/16 11:43:21;;;;;;;5.55;1.60;;;;;;;;;;5003534;28;20192;-52
2021/03/16 11:45:46;;;;;;;3.33;1.40;;;;;;;;;;5003535;28;20687;-49
2021/03/16 11:48:12;;;;;;;3.60;1.53;;;;;;;;;;5004054;28;20200;-51
2021/03/16 11:50:37;;;;;;;2.60;1.15;;;;;;;;;;5007146;28;20195;-54
2021/03/16 11:53:04;;;;;;;5.50;1.40;;;;;;;;;;5006174;28;20195;-51
2021/03/16 11:55:29;;;;;;;3.25;1.48;;;;;;;;;;5003450;28;20284;-52
2021/03/16 11:57:54;;;;;;;2.53;1.35;;;;;;;;;;5004999;28;20200;-52
2021/03/16 12:00:20;;;;;;;3.70;1.70;;;;;;;;;;5006313;28;20427;-52
2021/03/16 12:02:45;;;;;;;4.88;1.77;;;;;;;;;;4997941;28;20188;-51
2021/03/16 12:05:11;;;;;;;7.57;2.20;;;;;;;;;;5001967;28;20365;-51
2021/03/16 12:07:36;;;;;;;4.95;2.28;;;;;;;;;;4990015;28;20202;-56
2021/03/16 12:10:03;;;;;;;3.88;1.70;;;;;;;;;;4983905;28;20191;-52
2021/03/16 12:12:29;;;;;;;4.15;1.60;;;;;;;;;;4998047;28;20188;-52
2021/03/16 12:14:54;;;;;;;5.70;1.60;;;;;;;;;;4989251;28;20218;-53
2021/03/16 12:17:19;;;;;;;5.50;1.70;;;;;;;;;;5009777;28;20191;-55
2021/03/16 12:19:45;;;;;;;5.72;1.90;;;;;;;;;;5001745;28;20293;-52
2021/03/16 12:22:10;;;;;;;3.25;1.63;;;;;;;;;;5004228;28;20195;-51
2021/03/16 12:24:36;;;;;;;4.35;1.40;;;;;;;;;;5002307;28;20207;-52
2021/03/16 12:27:01;;;;;;;3.22;1.33;;;;;;;;;;5000781;28;20191;-52
2021/03/16 12:29:29;;;;;;;3.90;1.40;;;;;;;;;;5000953;28;20195;-53
2021/03/16 12:31:54;;;;;;;5.13;1.85;;;;;;;;;;5000772;28;20273;-50
2021/03/16 12:34:19;;;;;;;6.32;1.80;;;;;;;;;;5004740;28;20256;-51
2021/03/16 12:36:45;;;;;;;3.65;1.48;;;;;;;;;;5001694;28;20183;-53
2021/03/16 12:39:10;;;;;;;5.38;1.52;;;;;;;;;;5002024;28;20191;-50
2021/03/16 12:41:35;;;;;;;7.90;1.50;;;;;;;;;;5000936;28;20325;-51
2021/03/16 12:44:01;;;;;;;4.05;1.55;;;;;;;;;;5002342;28;20187;-52
2021/03/16 12:46:29;;;;;;;5.10;1.75;;;;;;;;;;4995907;28;20295;-50
2021/03/16 12:48:55;;;;;;;4.25;1.40;;;;;;;;;;4998439;28;20224;-51
2021/03/16 12:51:20;;;;;;;5.07;1.40;;;;;;;;;;4985829;28;20569;-52
2021/03/16 12:53:46;;;;;;;4.20;1.50;;;;;;;;;;5003487;28;20373;-51
2021/03/16 12:56:14;;;;;;;5.40;1.50;;;;;;;;;;5000538;28;20719;-50
2021/03/16 12:58:40;;;;;;;2.63;1.10;;;;;;;;;;5001021;28;20763;-52
2021/03/16 13:01:06;;;;;;;3.40;1.20;;;;;;;;;;5005517;28;20302;-52
2021/03/16 13:03:32;;;;;;;5.33;1.30;;;;;;;;;;5001426;28;20341;-51
2021/03/16 13:05:57;;;;;;;3.15;1.40;;;;;;;;;;5002098;28;20295;-49
2021/03/16 13:08:22;;;;;;;3.63;1.50;;;;;;;;;;5002653;28;20195;-52
2021/03/16 13:10:48;;;;;;;4.32;1.52;;;;;;;;;;5000956;28;20191;-50
2021/03/16 13:13:13;;;;;;;3.70;1.70;;;;;;;;;;4999034;28;20195;-52
2021/03/16 13:15:39;;;;;;;3.97;1.75;;;;;;;;;;4981098;28;20304;-51
2021/03/16 13:18:05;;;;;;;7.43;2.08;;;;;;;;;;5004099;28;20247;-52
2021/03/16 13:20:31;;;;;;;4.93;1.67;;;;;;;;;;5000011;28;20377;-51
2021/03/16 13:22:56;;;;;;;6.30;1.73;;;;;;;;;;5002796;28;20179;-52
2021/03/16 13:25:22;;;;;;;8.13;1.67;;;;;;;;;;5000091;28;20711;-53
2021/03/16 13:27:47;;;;;;;6.53;1.80;;;;;;;;;;5001207;28;20203;-49
2021/03/16 13:30:13;;;;;;;6.37;1.70;;;;;;;;;;4999613;28;20191;-52
2021/03/16 13:32:38;;;;;;;6.43;2.00;;;;;;;;;;5000693;28;20214;-52
2021/03/16 13:35:04;;;;;;;5.87;1.60;;;;;;;;;;5003196;28;20211;-49
2021/03/16 13:37:29;;;;;;;8.20;1.80;;;;;;;;;;4998061;28;20374;-51
2021/03/16 13:39:55;;;;;;;7.87;2.00;;;;;;;;;;5000707;28;20211;-49
2021/03/16 13:42:21;;;;;;;4.73;1.60;;;;;;;;;;5001271;28;20200;-52
2021/03/16 13:44:46;;;;;;;7.20;1.90;;;;;;;;;;5002052;28;20699;-51
2021/03/16 13:47:11;;;;;;;6.57;1.53;;;;;;;;;;4998420;28;20204;-52
2021/03/16 13:49:37;;;;;;;6.30;1.53;;;;;;;;;;4998185;28;20237;-49
2021/03/16 13:52:02;;;;;;;8.50;2.00;;;;;;;;;;5010250;28;20195;-50
2021/03/16 13:54:30;;;;;;;6.93;1.70;;;;;;;;;;4997564;28;20666;-52
2021/03/16 13:56:56;;;;;;;7.43;2.17;;;;;;;;;;4997739;28;20679;-52
2021/03/16 13:59:22;;;;;;;6.63;1.57;;;;;;;;;;5000872;28;20295;-52
2021/03/16 14:01:47;;;;;;;7.50;1.90;;;;;;;;;;5003123;28;20202;-51
2021/03/16 14:04:12;;;;;;;5.03;1.80;;;;;;;;;;4999070;28;20203;-53
2021/03/16 14:06:40;;;;;;;5.03;1.73;;;;;;;;;;4999400;28;20210;-53
2021/03/16 14:09:06;;;;;;;7.80;1.73;;;;;;;;;;5003976;28;20195;-51
2021/03/16 14:11:31;;;;;;;6.57;1.80;;;;;;;;;;5002506;28;20194;-51
2021/03/16 14:13:56;;;;;;;7.27;1.90;;;;;;;;;;4999361;28;20627;-52
2021/03/16 14:16:22;;;;;;;4.53;1.80;;;;;;;;;;4999542;28;20207;-50
2021/03/16 14:18:47;;;;;;;7.70;2.17;;;;;;;;;;4999107;28;20183;-53
2021/03/16 14:21:12;;;;;;;5.73;1.60;;;;;;;;;;4999057;28;20257;-54
2021/03/16 14:23:38;;;;;;;5.63;1.53;;;;;;;;;;4998576;28;20623;-52
2021/03/16 14:26:03;;;;;;;5.67;1.87;;;;;;;;;;4982246;28;20223;-51
2021/03/16 14:28:29;;;;;;;8.10;2.07;;;;;;;;;;5005377;28;20187;-52
2021/03/16 14:30:54;;;;;;;7.67;2.00;;;;;;;;;;4997521;28;20682;-51
2021/03/16 14:33:20;;;;;;;8.33;2.03;;;;;;;;;;5000863;28;20203;-52
2021/03/16 14:35:45;;;;;;;5.83;2.00;;;;;;;;;;5003389;28;20230;-50